createdAt,value
2019-03-10T00:00:10.480Z,4.77
2019-03-10T00:02:40.761Z,5.10
2019-03-10T00:05:08.700Z,4.87
2019-03-10T00:07:36.969Z,6.13
2019-03-10T00:10:07.010Z,5.33
2019-03-10T00:12:37.881Z,5.47
2019-03-10T00:15:08.631Z,5.30
2019-03-10T00:17:36.904Z,5.23
2019-03-10T00:20:06.655Z,5.20
2019-03-10T00:22:34.795Z,5.70
2019-03-10T00:25:04.328Z,4.93
2019-03-10T00:27:32.838Z,4.83
2019-03-10T00:30:02.619Z,4.17
2019-03-10T00:32:30.789Z,4.57
2019-03-10T00:34:58.991Z,4.85
2019-03-10T00:37:27.207Z,4.57
2019-03-10T00:39:58.013Z,5.30
2019-03-10T00:42:44.638Z,4.73
2019-03-10T00:45:29.729Z,4.67
2019-03-10T00:48:02.389Z,4.27
2019-03-10T00:50:50.642Z,5.10
2019-03-10T00:53:18.762Z,4.97
2019-03-10T00:55:46.901Z,4.53
2019-03-10T00:58:15.197Z,5.10
2019-03-10T01:00:43.337Z,4.23
2019-03-10T01:03:11.562Z,5.17
2019-03-10T01:05:39.759Z,4.93
2019-03-10T01:08:07.887Z,4.73
2019-03-10T01:10:37.512Z,5.47
2019-03-10T01:13:05.755Z,4.67
2019-03-10T01:15:33.967Z,4.22
2019-03-10T01:18:07.363Z,6.67
2019-03-10T01:20:33.175Z,5.43
2019-03-10T01:23:01.386Z,5.27
2019-03-10T01:25:30.271Z,5.20
2019-03-10T01:27:58.522Z,4.00
2019-03-10T01:30:28.224Z,5.20
2019-03-10T01:33:03.772Z,6.20
2019-03-10T01:35:33.842Z,5.30
2019-03-10T01:38:01.993Z,5.83
2019-03-10T01:40:30.159Z,4.83
2019-03-10T01:43:00.296Z,7.03
2019-03-10T01:45:29.776Z,4.70
2019-03-10T01:47:59.331Z,5.08
2019-03-10T01:50:27.762Z,5.67
2019-03-10T01:52:56.100Z,5.03
2019-03-10T01:55:25.476Z,5.60
2019-03-10T01:57:53.608Z,7.40
2019-03-10T02:00:23.332Z,4.70
2019-03-10T02:02:51.609Z,6.30
2019-03-10T02:05:21.262Z,6.17
2019-03-10T02:07:49.458Z,7.07
2019-03-10T02:10:17.623Z,6.50
2019-03-10T02:12:45.814Z,5.47
2019-03-10T02:15:15.214Z,4.90
2019-03-10T02:17:43.463Z,5.73
2019-03-10T02:20:12.843Z,5.33
2019-03-10T02:22:41.075Z,4.70
2019-03-10T02:25:10.921Z,5.53
2019-03-10T02:27:39.120Z,5.70
2019-03-10T02:30:08.778Z,5.40
2019-03-10T02:32:36.902Z,5.30
2019-03-10T02:35:05.676Z,6.20
2019-03-10T02:37:33.895Z,5.70
2019-03-10T02:40:02.112Z,5.55
2019-03-10T02:42:30.276Z,5.40
2019-03-10T02:44:58.412Z,5.80
2019-03-10T02:47:26.697Z,4.73
2019-03-10T02:49:54.986Z,5.80
2019-03-10T02:52:23.212Z,4.93
2019-03-10T02:54:52.143Z,4.12
2019-03-10T02:57:20.261Z,6.03
2019-03-10T02:59:48.821Z,6.27
2019-03-10T03:02:17.032Z,6.00
2019-03-10T03:04:45.206Z,6.13
2019-03-10T03:07:13.427Z,7.80
2019-03-10T03:09:43.538Z,5.10
2019-03-10T03:12:11.456Z,6.87
2019-03-10T03:14:39.707Z,6.30
2019-03-10T03:17:07.926Z,7.43
2019-03-10T03:19:36.063Z,7.10
2019-03-10T03:22:04.220Z,6.50
2019-03-10T03:24:32.564Z,6.93
2019-03-10T03:27:05.311Z,6.07
2019-03-10T03:29:30.606Z,6.22
2019-03-10T03:31:58.743Z,6.00
2019-03-10T03:34:27.421Z,5.87
2019-03-10T03:36:55.605Z,6.37
2019-03-10T03:39:25.470Z,6.13
2019-03-10T03:41:53.683Z,5.10
2019-03-10T03:44:21.880Z,5.03
2019-03-10T03:46:50.086Z,4.67
2019-03-10T03:49:18.274Z,3.85
2019-03-10T03:51:47.243Z,3.90
2019-03-10T03:54:27.557Z,3.83
2019-03-10T03:56:45.231Z,4.53
2019-03-10T03:59:13.377Z,4.53
2019-03-10T04:01:43.165Z,5.23
2019-03-10T04:04:11.328Z,3.80
2019-03-10T04:06:39.505Z,2.77
2019-03-10T04:09:08.399Z,3.67
2019-03-10T04:11:36.583Z,3.63
2019-03-10T04:14:04.841Z,3.02
2019-03-10T04:16:35.217Z,3.40
2019-03-10T04:19:04.141Z,3.83
2019-03-10T04:21:33.482Z,4.20
2019-03-10T04:24:01.639Z,4.43
2019-03-10T04:26:29.808Z,4.23
2019-03-10T04:28:57.954Z,3.30
2019-03-10T04:31:26.076Z,2.90
2019-03-10T04:33:54.219Z,4.30
2019-03-10T04:36:26.523Z,3.03
2019-03-10T04:38:54.011Z,2.67
2019-03-10T04:41:22.222Z,3.33
2019-03-10T04:43:51.831Z,2.70
2019-03-10T04:46:19.980Z,2.87
2019-03-10T04:48:48.127Z,3.70
2019-03-10T04:51:16.272Z,2.93
2019-03-10T04:53:44.484Z,2.92
2019-03-10T04:56:17.016Z,2.93
2019-03-10T04:58:47.522Z,3.42
2019-03-10T05:01:15.655Z,3.30
2019-03-10T05:03:44.275Z,4.03
2019-03-10T05:06:12.466Z,3.90
2019-03-10T05:08:40.672Z,4.20
2019-03-10T05:11:08.814Z,5.10
2019-03-10T05:13:37.023Z,4.80
2019-03-10T05:16:05.215Z,4.53
2019-03-10T05:18:33.428Z,4.67
2019-03-10T05:21:01.547Z,5.22
2019-03-10T05:23:31.306Z,5.90
2019-03-10T05:25:59.719Z,6.43
2019-03-10T05:28:28.880Z,5.35
2019-03-10T05:30:59.294Z,5.00
2019-03-10T05:33:27.411Z,5.37
2019-03-10T05:35:59.293Z,4.57
2019-03-10T05:38:27.452Z,4.20
2019-03-10T05:40:56.878Z,5.20
2019-03-10T05:43:25.033Z,5.30
2019-03-10T05:45:53.187Z,6.07
2019-03-10T05:48:21.310Z,5.30
2019-03-10T05:50:49.540Z,4.80
2019-03-10T05:53:18.883Z,4.70
2019-03-10T05:55:47.006Z,4.13
2019-03-10T05:58:15.270Z,4.67
2019-03-10T06:00:43.524Z,4.70
2019-03-10T06:03:18.977Z,4.70
2019-03-10T06:05:47.173Z,6.73
2019-03-10T06:08:16.577Z,6.13
2019-03-10T06:10:45.574Z,5.10
2019-03-10T06:13:22.454Z,4.00
2019-03-10T06:15:50.650Z,4.50
2019-03-10T06:18:18.772Z,4.13
2019-03-10T06:20:46.924Z,3.70
2019-03-10T06:23:15.094Z,4.53
2019-03-10T06:25:44.967Z,3.93
2019-03-10T06:28:13.132Z,2.92
2019-03-10T06:30:41.388Z,3.03
2019-03-10T06:33:09.515Z,2.40
2019-03-10T06:35:37.710Z,2.20
2019-03-10T06:38:05.863Z,3.43
2019-03-10T06:40:33.978Z,3.30
2019-03-10T06:43:02.136Z,2.57
2019-03-10T06:45:30.288Z,3.37
2019-03-10T06:47:58.410Z,2.40
2019-03-10T06:50:26.675Z,2.57
2019-03-10T06:52:54.804Z,2.83
2019-03-10T06:55:22.950Z,3.37
2019-03-10T06:57:51.062Z,2.20
2019-03-10T07:00:19.286Z,3.13
2019-03-10T07:02:47.400Z,2.20
2019-03-10T07:05:15.555Z,2.33
2019-03-10T07:07:43.675Z,2.80
2019-03-10T07:10:15.432Z,2.07
2019-03-10T07:12:44.049Z,2.60
2019-03-10T07:15:12.903Z,2.63
2019-03-10T07:17:41.091Z,2.40
2019-03-10T07:20:10.398Z,3.08
2019-03-10T07:22:38.650Z,2.40
2019-03-10T07:25:09.328Z,2.30
2019-03-10T07:27:45.169Z,2.57
2019-03-10T07:30:35.412Z,2.33
2019-03-10T07:33:08.598Z,1.98
2019-03-10T07:35:56.482Z,1.70
2019-03-10T07:38:37.994Z,2.10
2019-03-10T07:41:23.952Z,2.20
2019-03-10T07:43:53.720Z,2.13
2019-03-10T07:46:40.272Z,2.30
2019-03-10T07:49:25.273Z,1.92
2019-03-10T07:52:06.946Z,2.13
2019-03-10T07:54:51.987Z,2.00
2019-03-10T07:57:22.056Z,2.33
2019-03-10T08:00:08.499Z,2.40
2019-03-10T08:02:47.298Z,2.90
2019-03-10T08:05:22.715Z,3.30
2019-03-10T08:07:58.244Z,3.85
2019-03-10T08:10:33.717Z,2.67
2019-03-10T08:13:21.944Z,2.50
2019-03-10T08:16:06.761Z,2.50
2019-03-10T08:18:51.479Z,1.80
2019-03-10T08:21:37.647Z,2.07
2019-03-10T08:24:10.374Z,1.90
2019-03-10T08:26:40.180Z,2.50
2019-03-10T08:29:21.777Z,2.67
2019-03-10T08:32:08.285Z,1.83
2019-03-10T08:34:50.066Z,2.70
2019-03-10T08:37:36.298Z,3.13
2019-03-10T08:40:07.659Z,2.75
2019-03-10T08:42:52.556Z,2.87
2019-03-10T08:45:25.465Z,3.30
2019-03-10T08:47:58.255Z,2.53
2019-03-10T08:50:31.011Z,2.10
2019-03-10T08:53:00.789Z,2.23
2019-03-10T08:55:45.748Z,2.17
2019-03-10T08:58:18.702Z,2.83
2019-03-10T09:01:00.349Z,2.70
2019-03-10T09:03:30.277Z,2.80
2019-03-10T09:06:05.942Z,2.37
2019-03-10T09:08:40.508Z,3.23
2019-03-10T09:11:25.392Z,3.03
2019-03-10T09:13:55.209Z,2.97
2019-03-10T09:16:30.854Z,2.30
2019-03-10T09:19:16.547Z,3.03
2019-03-10T09:21:46.308Z,3.17
2019-03-10T09:24:28.589Z,3.03
2019-03-10T09:27:08.289Z,2.70
2019-03-10T09:29:43.957Z,3.40
2019-03-10T09:32:29.186Z,5.43
2019-03-10T09:37:56.436Z,3.13
2019-03-10T09:40:42.016Z,3.63
2019-03-10T09:43:16.936Z,3.50
2019-03-10T09:45:46.697Z,3.23
2019-03-10T09:48:19.521Z,4.05
2019-03-10T09:50:49.430Z,15.93
2019-03-10T09:53:34.616Z,8.70
2019-03-10T09:56:54.800Z,5.93
2019-03-10T09:58:42.363Z,6.27
2019-03-10T10:01:33.787Z,7.00
2019-03-10T10:04:03.677Z,8.47
2019-03-10T10:06:33.552Z,8.50
2019-03-10T10:09:18.296Z,8.30
2019-03-10T10:17:58.639Z,8.03
2019-03-10T10:20:40.306Z,7.30
2019-03-10T10:23:11.635Z,5.22
2019-03-10T10:25:46.028Z,4.70
2019-03-10T10:28:18.620Z,4.00
2019-03-10T10:30:52.593Z,2.92
2019-03-10T10:33:23.166Z,3.23
2019-03-10T10:36:14.943Z,2.70
2019-03-10T10:42:10.133Z,2.12
2019-03-10T10:44:41.647Z,1.90
2019-03-10T10:47:54.139Z,2.03
2019-03-10T10:50:09.721Z,2.57
2019-03-10T10:52:51.720Z,2.37
2019-03-10T10:55:24.550Z,3.03
2019-03-10T10:57:57.505Z,3.40
2019-03-10T11:00:43.826Z,4.50
2019-03-10T11:03:16.499Z,8.65
2019-03-10T11:05:52.157Z,5.90
2019-03-10T11:08:22.271Z,4.00
2019-03-10T11:10:54.519Z,13.57
2019-03-10T11:13:41.007Z,8.20
2019-03-10T11:16:25.872Z,6.30
2019-03-10T11:18:55.733Z,5.60
2019-03-10T11:21:36.525Z,8.20
2019-03-10T11:24:06.373Z,7.97
2019-03-10T11:26:51.599Z,4.67
2019-03-10T11:29:38.081Z,3.10
2019-03-10T11:32:22.992Z,3.40
2019-03-10T11:34:55.720Z,5.90
2019-03-10T11:37:37.735Z,4.53
2019-03-10T11:40:21.396Z,3.50
2019-03-10T11:43:00.121Z,4.30
2019-03-10T11:45:38.891Z,6.50
2019-03-10T11:48:11.841Z,7.60
2019-03-10T11:50:59.292Z,7.00
2019-03-10T11:53:37.879Z,5.87
2019-03-10T11:56:13.834Z,5.35
2019-03-10T11:58:49.811Z,5.20
2019-03-10T12:01:19.642Z,3.73
2019-03-10T12:04:05.719Z,3.30
2019-03-10T12:06:37.028Z,3.93
2019-03-10T12:09:09.147Z,6.03
2019-03-10T12:11:37.401Z,10.18
2019-03-10T12:14:08.091Z,10.20
2019-03-10T12:16:36.230Z,8.73
2019-03-10T12:19:04.481Z,5.70
2019-03-10T12:21:33.265Z,6.70
2019-03-10T12:24:01.410Z,6.00
2019-03-10T12:26:29.668Z,6.62
2019-03-10T12:28:57.801Z,4.90
2019-03-10T12:31:27.637Z,5.57
2019-03-10T12:33:55.807Z,5.80
2019-03-10T12:36:25.099Z,4.97
2019-03-10T12:38:53.242Z,5.97
2019-03-10T12:41:21.505Z,2.87
2019-03-10T12:43:49.637Z,1.80
2019-03-10T12:46:18.940Z,3.00
2019-03-10T12:48:47.077Z,2.47
2019-03-10T12:51:27.785Z,1.83
2019-03-10T12:53:48.773Z,2.47
2019-03-10T12:56:19.345Z,2.80
2019-03-10T12:58:50.198Z,2.73
2019-03-10T13:01:18.529Z,2.47
2019-03-10T13:03:58.415Z,1.80
2019-03-10T13:06:19.899Z,2.13
2019-03-10T13:08:48.019Z,1.97
2019-03-10T13:11:16.145Z,3.27
2019-03-10T13:13:44.322Z,3.40
2019-03-10T13:16:12.609Z,3.80
2019-03-10T13:18:42.406Z,3.73
2019-03-10T13:21:10.584Z,3.95
2019-03-10T13:23:40.440Z,4.00
2019-03-10T13:26:08.570Z,4.13
2019-03-10T13:28:36.757Z,4.63
2019-03-10T13:31:07.795Z,3.73
2019-03-10T13:33:36.066Z,4.40
2019-03-10T13:36:04.257Z,2.50
2019-03-10T13:38:32.662Z,2.98
2019-03-10T13:41:05.219Z,3.30
2019-03-10T13:43:33.173Z,2.08
2019-03-10T13:46:06.421Z,1.80
2019-03-10T13:48:34.829Z,1.17
2019-03-10T13:51:05.767Z,2.30
2019-03-10T13:53:33.986Z,1.43
2019-03-10T13:56:44.012Z,2.43
2019-03-10T13:58:36.483Z,2.07
2019-03-10T14:01:04.957Z,1.83
2019-03-10T14:03:37.667Z,1.23
2019-03-10T14:06:03.177Z,2.37
2019-03-10T14:08:31.476Z,1.60
2019-03-10T14:10:59.743Z,1.77
2019-03-10T14:13:29.064Z,2.50
2019-03-10T14:15:57.331Z,1.52
2019-03-10T14:18:29.451Z,1.13
2019-03-10T14:20:57.551Z,1.80
2019-03-10T14:23:25.790Z,2.10
2019-03-10T14:25:53.975Z,1.37
2019-03-10T14:28:22.453Z,1.70
2019-03-10T14:30:58.367Z,3.37
2019-03-10T14:33:22.224Z,2.80
2019-03-10T14:35:52.640Z,1.60
2019-03-10T14:38:20.378Z,3.60
2019-03-10T14:40:51.766Z,1.90
2019-03-10T14:43:19.974Z,1.50
2019-03-10T14:45:52.451Z,1.40
2019-03-10T14:48:20.679Z,1.40
2019-03-10T14:50:48.797Z,1.77
2019-03-10T14:53:19.391Z,1.73
2019-03-10T14:55:47.651Z,1.20
2019-03-10T14:58:15.779Z,1.10
2019-03-10T15:00:43.936Z,2.50
2019-03-10T15:03:16.672Z,1.03
2019-03-10T15:05:44.903Z,1.60
2019-03-10T15:08:17.013Z,1.53
2019-03-10T15:10:45.260Z,1.30
2019-03-10T15:13:15.102Z,1.40
2019-03-10T15:15:44.567Z,1.30
2019-03-10T15:18:12.787Z,1.10
2019-03-10T15:20:40.942Z,1.67
2019-03-10T15:23:09.431Z,0.67
2019-03-10T15:28:20.631Z,0.97
2019-03-10T15:30:50.499Z,0.90
2019-03-10T15:33:18.803Z,0.73
2019-03-10T15:35:46.933Z,0.70
2019-03-10T15:38:15.139Z,0.95
2019-03-10T15:40:43.490Z,0.90
2019-03-10T15:43:12.430Z,0.90
2019-03-10T15:45:46.738Z,0.70
2019-03-10T15:48:10.394Z,0.90
2019-03-10T15:50:40.778Z,0.80
2019-03-10T15:53:08.991Z,0.90
2019-03-10T15:55:37.170Z,0.90
2019-03-10T15:58:05.546Z,0.70
2019-03-10T16:00:33.752Z,0.90
2019-03-10T16:03:01.943Z,1.10
2019-03-10T16:05:33.003Z,1.87
2019-03-10T16:08:04.862Z,0.60
2019-03-10T16:10:33.530Z,0.60
2019-03-10T16:13:01.687Z,0.50
2019-03-10T16:18:06.179Z,0.70
2019-03-10T16:20:36.404Z,0.70
2019-03-10T16:23:04.542Z,0.60
2019-03-10T16:28:12.242Z,1.13
2019-03-10T16:30:40.433Z,1.03
2019-03-10T16:33:13.120Z,0.60
2019-03-10T16:35:52.917Z,0.70
2019-03-10T16:38:11.613Z,1.45
2019-03-10T16:40:39.740Z,0.97
2019-03-10T16:43:09.566Z,1.00
2019-03-10T16:45:37.711Z,1.07
2019-03-10T16:48:10.446Z,1.47
2019-03-10T16:50:40.304Z,0.63
2019-03-10T16:53:11.637Z,1.12
2019-03-10T16:55:39.758Z,0.93
2019-03-10T16:58:08.083Z,0.90
2019-03-10T17:00:36.307Z,1.03
2019-03-10T17:03:04.502Z,0.70
2019-03-10T17:05:34.683Z,0.90
2019-03-10T17:08:02.714Z,0.50
2019-03-10T17:10:30.946Z,1.20
2019-03-10T17:12:59.145Z,0.90
2019-03-10T17:15:29.998Z,0.90
2019-03-10T17:17:58.215Z,0.90
2019-03-10T17:20:28.073Z,1.40
2019-03-10T17:22:56.259Z,1.57
2019-03-10T17:25:25.327Z,1.70
2019-03-10T17:27:56.341Z,2.30
2019-03-10T17:30:25.153Z,3.00
2019-03-10T17:32:53.417Z,2.20
2019-03-10T17:35:27.313Z,3.63
2019-03-10T17:37:55.515Z,3.43
2019-03-10T17:40:26.277Z,2.92
2019-03-10T17:42:54.017Z,3.93
2019-03-10T17:45:27.030Z,3.60
2019-03-10T17:47:55.891Z,4.17
2019-03-10T17:50:26.170Z,4.30
2019-03-10T17:52:54.165Z,6.63
2019-03-10T17:55:22.688Z,4.23
2019-03-10T17:57:52.401Z,3.87
2019-03-10T18:00:25.340Z,3.50
2019-03-10T18:02:55.033Z,3.83
2019-03-10T18:05:23.234Z,3.80
2019-03-10T18:07:54.310Z,3.40
2019-03-10T18:10:22.489Z,2.80
2019-03-10T18:12:59.470Z,2.50
2019-03-10T18:15:27.641Z,2.40
2019-03-10T18:18:01.772Z,3.57
2019-03-10T18:20:26.024Z,2.92
2019-03-10T18:22:56.358Z,3.00
2019-03-10T18:25:24.120Z,3.20
2019-03-10T18:27:53.944Z,2.83
2019-03-10T18:30:26.019Z,3.40
2019-03-10T18:32:54.278Z,3.23
2019-03-10T18:35:22.543Z,3.53
2019-03-10T18:37:50.766Z,2.95
2019-03-10T18:40:20.502Z,2.50
2019-03-10T18:42:48.727Z,3.13
2019-03-10T18:45:18.811Z,2.67
2019-03-10T18:47:47.082Z,1.50
2019-03-10T18:50:18.564Z,1.80
2019-03-10T18:52:46.941Z,1.70
2019-03-10T18:55:16.405Z,1.70
2019-03-10T18:57:44.548Z,1.93
2019-03-10T19:00:16.572Z,2.20
2019-03-10T19:02:51.807Z,1.87
2019-03-10T19:05:23.107Z,1.93
2019-03-10T19:07:51.305Z,2.00
2019-03-10T19:10:19.605Z,1.27
2019-03-10T19:12:47.875Z,1.73
2019-03-10T19:15:24.222Z,2.27
2019-03-10T19:17:52.485Z,1.60
2019-03-10T19:20:20.640Z,1.30
2019-03-10T19:22:51.505Z,1.30
2019-03-10T19:25:20.467Z,1.20
2019-03-10T19:27:48.676Z,1.70
2019-03-10T19:30:20.765Z,1.95
2019-03-10T19:32:51.578Z,1.43
2019-03-10T19:35:18.901Z,1.33
2019-03-10T19:37:47.123Z,1.20
2019-03-10T19:40:21.573Z,2.00
2019-03-10T19:42:49.817Z,1.57
2019-03-10T19:45:18.765Z,1.60
2019-03-10T19:47:46.886Z,1.52
2019-03-10T19:50:27.012Z,1.47
2019-03-10T19:52:58.024Z,1.30
2019-03-10T19:55:26.359Z,1.30
2019-03-10T19:57:54.500Z,1.20
2019-03-10T20:00:24.965Z,1.60
2019-03-10T20:02:52.707Z,1.25
2019-03-10T20:05:20.878Z,1.47
2019-03-10T20:07:49.755Z,0.90
2019-03-10T20:10:19.422Z,1.20
2019-03-10T20:12:47.977Z,1.10
2019-03-10T20:15:23.865Z,1.60
2019-03-10T20:17:55.631Z,1.15
2019-03-10T20:20:36.052Z,1.00
2019-03-10T20:23:04.176Z,0.90
2019-03-10T20:30:47.808Z,1.10
2019-03-10T20:33:16.081Z,1.37
2019-03-10T20:35:45.831Z,1.50
2019-03-10T20:38:14.151Z,1.57
2019-03-10T20:40:43.587Z,0.90
2019-03-10T20:43:11.850Z,1.37
2019-03-10T20:45:48.657Z,6.35
2019-03-10T20:48:12.686Z,10.67
2019-03-10T20:50:42.749Z,6.20
2019-03-10T20:53:18.759Z,3.40
2019-03-10T20:56:14.834Z,2.27
2019-03-10T20:58:24.712Z,2.67
2019-03-10T21:01:00.187Z,2.00
2019-03-10T21:03:28.323Z,2.80
2019-03-10T21:06:07.111Z,2.03
2019-03-10T21:08:37.336Z,2.40
2019-03-10T21:11:08.577Z,2.33
2019-03-10T21:13:47.157Z,2.17
2019-03-10T21:16:16.821Z,2.83
2019-03-10T21:18:46.630Z,2.87
2019-03-10T21:21:15.588Z,3.40
2019-03-10T21:23:43.894Z,3.53
2019-03-10T21:26:12.071Z,3.22
2019-03-10T21:28:43.417Z,3.13
2019-03-10T21:31:11.540Z,3.08
2019-03-10T21:33:42.935Z,3.30
2019-03-10T21:36:11.113Z,3.07
2019-03-10T21:38:41.158Z,2.93
2019-03-10T21:41:14.177Z,3.30
2019-03-10T21:43:39.216Z,3.00
2019-03-10T21:46:07.774Z,3.13
2019-03-10T21:48:36.020Z,3.12
2019-03-10T21:51:04.249Z,4.40
2019-03-10T21:53:32.505Z,4.80
2019-03-10T21:56:00.851Z,4.53
2019-03-10T21:58:29.766Z,4.87
2019-03-10T22:00:57.959Z,4.10
2019-03-10T22:03:26.265Z,2.85
2019-03-10T22:05:54.431Z,2.87
2019-03-10T22:08:22.569Z,2.20
2019-03-10T22:10:50.710Z,2.80
2019-03-10T22:13:18.889Z,2.47
2019-03-10T22:15:50.228Z,3.07
2019-03-10T22:18:19.982Z,3.00
2019-03-10T22:20:48.642Z,4.60
2019-03-10T22:23:17.135Z,4.93
2019-03-10T22:25:45.317Z,5.13
2019-03-10T22:28:13.481Z,4.93
2019-03-10T22:30:41.589Z,4.40
2019-03-10T22:33:11.281Z,3.50
2019-03-10T22:35:39.411Z,3.40
2019-03-10T22:38:07.610Z,4.53
2019-03-10T22:40:35.873Z,3.58
2019-03-10T22:43:04.008Z,4.03
2019-03-10T22:45:32.126Z,4.73
2019-03-10T22:48:00.316Z,4.80
2019-03-10T22:50:28.471Z,5.60
2019-03-10T22:52:56.668Z,4.27
2019-03-10T22:55:24.840Z,5.87
2019-03-10T22:57:53.069Z,4.50
2019-03-10T23:00:24.375Z,3.50
2019-03-10T23:02:52.483Z,3.50
2019-03-10T23:05:20.702Z,3.50
2019-03-10T23:07:49.568Z,3.27
2019-03-10T23:10:17.723Z,2.60
2019-03-10T23:12:45.843Z,2.93
2019-03-10T23:15:14.327Z,3.07
2019-03-10T23:17:44.075Z,4.67
2019-03-10T23:20:13.175Z,7.17
2019-03-10T23:22:41.879Z,7.35
2019-03-10T23:25:10.071Z,3.73
2019-03-10T23:27:38.328Z,2.73
2019-03-10T23:30:07.988Z,2.05
2019-03-10T23:32:36.148Z,1.57
2019-03-10T23:35:05.126Z,2.03
2019-03-10T23:37:33.308Z,1.90
2019-03-10T23:40:01.463Z,2.37
2019-03-10T23:42:29.694Z,2.83
2019-03-10T23:44:57.850Z,2.77
2019-03-10T23:47:26.028Z,3.75
2019-03-10T23:49:54.150Z,2.63
2019-03-10T23:52:22.311Z,2.90
2019-03-10T23:54:50.498Z,2.93
2019-03-10T23:57:18.638Z,7.83
2019-03-10T23:59:46.768Z,13.97
